createdAt,value
2024-02-20T00:02:29.631Z,5.60
2024-02-20T00:05:33.407Z,5.07
2024-02-20T00:08:36.648Z,5.35
2024-02-20T00:11:47.384Z,3.77
2024-02-20T00:14:53.952Z,4.85
2024-02-20T00:17:57.568Z,4.90
2024-02-20T00:21:01.044Z,5.30
2024-02-20T00:24:05.849Z,3.95
2024-02-20T00:27:12.185Z,5.07
2024-02-20T00:30:20.585Z,5.65
2024-02-20T00:33:24.885Z,6.28
2024-02-20T00:36:30.668Z,5.53
2024-02-20T00:39:37.176Z,5.80
2024-02-20T00:42:47.305Z,4.75
2024-02-20T00:45:51.878Z,4.88
2024-02-20T00:48:56.910Z,5.05
2024-02-20T00:52:04.871Z,4.55
2024-02-20T00:55:09.484Z,5.32
2024-02-20T00:58:12.852Z,5.97
2024-02-20T01:01:18.206Z,4.13
2024-02-20T01:04:23.252Z,4.78
2024-02-20T01:07:31.380Z,5.68
2024-02-20T01:10:35.605Z,5.40
2024-02-20T01:13:47.491Z,4.93
2024-02-20T01:16:57.407Z,5.22
2024-02-20T01:20:02.870Z,5.72
2024-02-20T01:23:09.983Z,5.05
2024-02-20T01:26:16.315Z,5.22
2024-02-20T01:29:25.229Z,4.50
2024-02-20T01:32:44.390Z,5.78
2024-02-20T01:35:52.120Z,5.30
2024-02-20T01:39:00.946Z,5.28
2024-02-20T01:42:04.428Z,5.40
2024-02-20T01:45:10.030Z,4.05
2024-02-20T01:48:14.144Z,5.43
2024-02-20T01:54:28.055Z,5.53
2024-02-20T01:57:34.389Z,5.07
2024-02-20T02:00:38.156Z,5.80
2024-02-20T02:03:49.067Z,4.70
2024-02-20T02:06:53.944Z,5.60
2024-02-20T02:09:59.341Z,4.50
2024-02-20T02:13:02.650Z,5.20
2024-02-20T02:16:09.904Z,5.78
2024-02-20T02:19:19.182Z,5.10
2024-02-20T02:22:23.029Z,5.90
2024-02-20T02:28:51.036Z,5.60
2024-02-20T02:31:54.852Z,4.60
2024-02-20T02:35:11.468Z,5.10
2024-02-20T02:38:14.514Z,4.95
2024-02-20T02:41:22.309Z,4.57
2024-02-20T02:44:28.246Z,4.38
2024-02-20T02:47:33.044Z,4.57
2024-02-20T02:50:35.726Z,5.45
2024-02-20T02:53:41.615Z,4.18
2024-02-20T02:56:48.558Z,5.05
2024-02-20T02:59:51.644Z,5.32
2024-02-20T03:02:56.178Z,4.85
2024-02-20T03:05:59.979Z,5.03
2024-02-20T03:09:17.188Z,4.93
2024-02-20T03:12:19.759Z,4.70
2024-02-20T03:15:22.983Z,4.30
2024-02-20T03:18:26.009Z,5.00
2024-02-20T03:21:32.026Z,3.93
2024-02-20T03:24:38.434Z,4.10
2024-02-20T03:27:44.706Z,4.70
2024-02-20T03:30:47.957Z,4.57
2024-02-20T03:33:54.313Z,6.22
2024-02-20T03:40:20.357Z,4.82
2024-02-20T03:43:26.255Z,4.22
2024-02-20T03:46:31.477Z,3.03
2024-02-20T03:49:35.979Z,4.03
2024-02-20T03:52:39.998Z,3.10
2024-02-20T03:55:42.790Z,4.55
2024-02-20T03:58:47.666Z,4.15
2024-02-20T04:01:56.037Z,4.45
2024-02-20T04:04:59.950Z,3.67
2024-02-20T04:08:06.457Z,3.72
2024-02-20T04:11:12.778Z,3.55
2024-02-20T04:14:16.710Z,4.68
2024-02-20T04:17:23.087Z,4.85
2024-02-20T04:20:27.116Z,5.10
2024-02-20T04:23:38.074Z,3.97
2024-02-20T04:26:44.047Z,3.72
2024-02-20T04:29:49.561Z,3.58
2024-02-20T04:32:55.058Z,3.65
2024-02-20T04:35:58.007Z,3.30
2024-02-20T04:39:04.651Z,3.53
2024-02-20T04:42:09.160Z,3.80
2024-02-20T04:45:13.733Z,4.05
2024-02-20T04:48:18.846Z,3.58
2024-02-20T04:51:25.124Z,4.53
2024-02-20T04:54:31.473Z,4.90
2024-02-20T04:57:39.475Z,4.43
2024-02-20T05:00:46.086Z,4.95
2024-02-20T05:03:51.300Z,5.03
2024-02-20T05:06:53.720Z,4.25
2024-02-20T05:10:00.000Z,4.35
2024-02-20T05:13:04.707Z,4.40
2024-02-20T05:16:10.228Z,4.93
2024-02-20T05:19:15.380Z,3.95
2024-02-20T05:22:22.771Z,3.40
2024-02-20T05:25:27.895Z,4.10
2024-02-20T05:28:33.331Z,4.28
2024-02-20T05:31:36.919Z,4.40
2024-02-20T05:37:50.272Z,5.18
2024-02-20T05:44:10.626Z,4.63
2024-02-20T05:50:30.539Z,5.00
2024-02-20T05:53:39.626Z,4.07
2024-02-20T05:56:44.966Z,4.63
2024-02-20T05:59:50.877Z,4.28
2024-02-20T06:02:56.146Z,5.50
2024-02-20T06:06:05.232Z,5.40
2024-02-20T06:09:09.328Z,4.18
2024-02-20T06:12:14.769Z,4.35
2024-02-20T06:15:26.110Z,4.68
2024-02-20T06:18:31.154Z,3.63
2024-02-20T06:21:44.266Z,3.83
2024-02-20T06:24:50.262Z,4.38
2024-02-20T06:27:57.641Z,3.92
2024-02-20T06:31:07.196Z,3.88
2024-02-20T06:34:12.620Z,4.25
2024-02-20T06:37:17.897Z,4.95
2024-02-20T06:40:24.271Z,4.75
2024-02-20T06:43:35.900Z,4.55
2024-02-20T06:46:44.586Z,6.57
2024-02-20T06:49:49.702Z,4.25
2024-02-20T06:52:55.420Z,4.40
2024-02-20T06:55:59.888Z,5.57
2024-02-20T06:59:06.568Z,4.53
2024-02-20T07:02:10.154Z,5.20
2024-02-20T07:05:14.687Z,4.50
2024-02-20T07:08:23.702Z,4.97
2024-02-20T07:11:30.726Z,5.38
2024-02-20T07:14:34.124Z,5.00
2024-02-20T07:17:38.570Z,3.35
2024-02-20T07:20:46.327Z,4.43
2024-02-20T07:30:26.061Z,3.17
2024-02-20T07:33:36.355Z,2.78
2024-02-20T07:36:47.618Z,3.45
2024-02-20T07:39:51.321Z,2.80
2024-02-20T07:42:56.029Z,3.40
2024-02-20T07:46:00.216Z,3.47
2024-02-20T07:52:14.950Z,2.13
2024-02-20T07:55:19.722Z,5.93
2024-02-20T07:58:30.835Z,2.75
2024-02-20T08:01:39.854Z,2.55
2024-02-20T08:04:45.618Z,1.90
2024-02-20T08:07:49.244Z,3.67
2024-02-20T08:10:52.795Z,2.25
2024-02-20T08:13:58.823Z,2.10
2024-02-20T08:17:04.397Z,2.97
2024-02-20T08:20:10.235Z,2.13
2024-02-20T08:23:12.591Z,4.28
2024-02-20T08:26:19.686Z,2.28
2024-02-20T08:29:29.820Z,2.35
2024-02-20T08:32:33.279Z,5.90
2024-02-20T08:35:45.082Z,1.88
2024-02-20T08:38:50.812Z,3.92
2024-02-20T08:41:53.238Z,2.85
2024-02-20T08:45:04.878Z,1.48
2024-02-20T08:48:09.982Z,2.20
2024-02-20T08:51:16.354Z,1.67
2024-02-20T08:54:24.823Z,3.25
2024-02-20T08:57:28.181Z,1.75
2024-02-20T09:00:37.328Z,2.67
2024-02-20T09:03:49.162Z,2.90
2024-02-20T09:06:54.604Z,2.70
2024-02-20T09:09:59.110Z,2.40
2024-02-20T09:13:03.184Z,2.78
2024-02-20T09:16:07.127Z,2.38
2024-02-20T09:19:12.338Z,1.77
2024-02-20T09:22:16.369Z,2.55
2024-02-20T09:25:20.434Z,4.38
2024-02-20T09:28:27.622Z,1.33
2024-02-20T09:31:32.410Z,1.40
2024-02-20T09:34:37.211Z,1.70
2024-02-20T09:37:47.897Z,1.30
2024-02-20T09:40:52.300Z,1.50
2024-02-20T09:43:58.740Z,2.00
2024-02-20T09:47:10.155Z,1.23
2024-02-20T09:50:23.110Z,2.33
2024-02-20T09:53:26.678Z,1.20
2024-02-20T09:56:42.886Z,1.45
2024-02-20T09:59:48.607Z,1.40
2024-02-20T10:02:53.755Z,1.10
2024-02-20T10:06:04.030Z,2.15
2024-02-20T10:09:13.010Z,1.47
2024-02-20T10:12:23.881Z,1.40
2024-02-20T10:15:30.905Z,1.80
2024-02-20T10:18:39.834Z,1.40
2024-02-20T10:21:52.814Z,2.03
2024-02-20T10:25:16.043Z,1.83
2024-02-20T10:28:23.328Z,2.90
2024-02-20T10:31:29.513Z,1.83
2024-02-20T10:34:46.709Z,1.92
2024-02-20T10:38:29.087Z,2.22
2024-02-20T10:41:34.470Z,1.38
2024-02-20T10:44:47.421Z,2.33
2024-02-20T10:47:52.436Z,2.78
2024-02-20T10:50:55.428Z,2.20
2024-02-20T10:54:03.172Z,2.55
2024-02-20T10:57:08.882Z,1.80
2024-02-20T11:00:14.879Z,2.05
2024-02-20T11:03:19.924Z,11.43
2024-02-20T11:06:22.621Z,4.97
2024-02-20T11:09:27.283Z,6.60
2024-02-20T11:12:35.318Z,2.80
2024-02-20T11:15:41.037Z,5.63
2024-02-20T11:19:02.149Z,3.63
2024-02-20T11:22:14.694Z,2.55
2024-02-20T11:25:31.712Z,2.30
2024-02-20T11:28:45.975Z,3.92
2024-02-20T11:31:54.523Z,5.38
2024-02-20T11:34:58.682Z,3.58
2024-02-20T11:38:11.071Z,2.10
2024-02-20T11:41:15.566Z,1.52
2024-02-20T11:44:22.051Z,2.65
2024-02-20T11:47:24.563Z,3.28
2024-02-20T11:50:36.370Z,1.33
2024-02-20T11:53:45.335Z,1.10
2024-02-20T11:56:47.793Z,1.20
2024-02-20T11:59:50.156Z,1.00
2024-02-20T12:06:18.478Z,1.70
2024-02-20T12:09:22.860Z,1.58
2024-02-20T12:12:42.492Z,2.15
2024-02-20T12:16:09.310Z,2.65
2024-02-20T12:19:29.800Z,2.00
2024-02-20T12:25:50.925Z,1.95
2024-02-20T12:28:58.665Z,1.60
2024-02-20T12:32:07.354Z,3.10
2024-02-20T12:35:15.396Z,1.55
2024-02-20T12:38:20.066Z,2.17
2024-02-20T12:44:34.033Z,1.15
2024-02-20T12:47:39.429Z,2.40
2024-02-20T12:50:52.644Z,2.80
2024-02-20T12:54:05.243Z,10.10
2024-02-20T12:57:11.950Z,5.10
2024-02-20T13:00:30.207Z,2.00
2024-02-20T13:03:40.446Z,2.00
2024-02-20T13:06:44.428Z,1.75
2024-02-20T13:09:55.080Z,1.48
2024-02-20T13:13:04.766Z,3.40
2024-02-20T13:16:08.152Z,2.67
2024-02-20T13:19:19.955Z,2.75
2024-02-20T13:22:25.691Z,3.45
2024-02-20T13:25:33.073Z,8.23
2024-02-20T13:31:58.178Z,2.03
2024-02-20T13:35:13.433Z,0.70
2024-02-20T13:38:18.505Z,1.20
2024-02-20T13:41:28.571Z,1.40
2024-02-20T13:44:41.602Z,1.88
2024-02-20T13:47:46.290Z,1.42
2024-02-20T13:51:00.084Z,1.10
2024-02-20T13:54:06.428Z,2.17
2024-02-20T13:57:13.713Z,6.68
2024-02-20T14:00:17.514Z,8.85
2024-02-20T14:03:28.377Z,1.98
2024-02-20T14:06:36.925Z,1.38
2024-02-20T14:09:39.703Z,1.48
2024-02-20T14:12:49.344Z,2.30
2024-02-20T14:15:54.936Z,1.20
2024-02-20T14:19:00.719Z,1.20
2024-02-20T14:22:06.481Z,1.40
2024-02-20T14:25:09.672Z,1.35
2024-02-20T14:28:12.367Z,1.27
2024-02-20T14:31:21.568Z,0.90
2024-02-20T14:34:28.282Z,1.00
2024-02-20T14:37:34.949Z,1.10
2024-02-20T14:40:38.679Z,0.98
2024-02-20T14:43:48.429Z,1.10
2024-02-20T14:46:58.943Z,1.27
2024-02-20T14:50:08.382Z,2.13
2024-02-20T14:53:13.465Z,1.40
2024-02-20T14:56:19.912Z,1.70
2024-02-20T14:59:29.683Z,2.30
2024-02-20T15:02:33.380Z,1.85
2024-02-20T15:05:37.237Z,1.15
2024-02-20T15:08:43.475Z,1.38
2024-02-20T15:11:52.301Z,1.15
2024-02-20T15:14:59.686Z,1.20
2024-02-20T15:18:04.439Z,1.00
2024-02-20T15:21:35.297Z,1.10
2024-02-20T15:25:01.990Z,1.35
2024-02-20T15:28:10.317Z,1.35
2024-02-20T15:31:17.665Z,1.40
2024-02-20T15:34:29.317Z,1.00
2024-02-20T15:37:40.081Z,1.48
2024-02-20T15:40:52.747Z,0.95
2024-02-20T15:43:55.431Z,0.93
2024-02-20T15:47:11.653Z,0.98
2024-02-20T15:50:20.860Z,1.10
2024-02-20T15:53:25.640Z,0.90
2024-02-20T15:56:30.813Z,1.40
2024-02-20T16:03:20.257Z,6.88
2024-02-20T16:06:28.159Z,2.78
2024-02-20T16:09:35.765Z,1.33
2024-02-20T16:16:12.122Z,1.20
2024-02-20T16:19:20.949Z,1.30
2024-02-20T16:22:27.732Z,1.13
2024-02-20T16:25:40.691Z,1.10
2024-02-20T16:28:48.373Z,1.10
2024-02-20T16:31:55.372Z,1.58
2024-02-20T16:34:59.266Z,1.80
2024-02-20T16:38:04.801Z,1.63
2024-02-20T16:41:09.917Z,1.55
2024-02-20T16:44:16.127Z,1.10
2024-02-20T16:50:45.333Z,1.10
2024-02-20T16:53:57.147Z,1.83
2024-02-20T16:57:00.043Z,1.23
2024-02-20T17:00:05.919Z,1.40
2024-02-20T17:03:10.315Z,1.73
2024-02-20T17:06:16.246Z,1.70
2024-02-20T17:09:27.826Z,1.15
2024-02-20T17:12:39.748Z,1.38
2024-02-20T17:15:49.116Z,1.80
2024-02-20T17:18:53.946Z,1.50
2024-02-20T17:25:19.252Z,1.67
2024-02-20T17:31:49.340Z,1.52
2024-02-20T17:34:59.208Z,2.10
2024-02-20T17:38:05.568Z,1.85
2024-02-20T17:41:56.272Z,1.63
2024-02-20T17:45:00.377Z,1.52
2024-02-20T17:54:15.613Z,4.55
2024-02-20T17:57:19.706Z,3.30
2024-02-20T18:03:55.340Z,3.70
2024-02-20T18:06:59.751Z,4.85
2024-02-20T18:10:11.356Z,2.75
2024-02-20T18:13:24.696Z,1.50
2024-02-20T18:16:27.121Z,4.53
2024-02-20T18:19:48.030Z,3.67
2024-02-20T18:22:54.981Z,3.40
2024-02-20T18:25:59.611Z,3.50
2024-02-20T18:29:07.972Z,3.53
2024-02-20T18:32:16.452Z,3.72
2024-02-20T18:35:23.286Z,4.05
2024-02-20T18:38:35.334Z,5.15
2024-02-20T18:41:45.846Z,3.95
2024-02-20T18:44:53.468Z,4.13
2024-02-20T18:48:06.607Z,2.88
2024-02-20T18:51:14.427Z,3.65
2024-02-20T18:54:16.835Z,4.00
2024-02-20T18:57:19.401Z,4.05
2024-02-20T19:00:31.831Z,3.83
2024-02-20T19:03:37.527Z,3.85
2024-02-20T19:06:47.642Z,4.05
2024-02-20T19:09:55.088Z,3.70
2024-02-20T19:12:58.628Z,3.78
2024-02-20T19:16:04.169Z,4.38
2024-02-20T19:19:11.247Z,4.63
2024-02-20T19:22:18.079Z,4.55
2024-02-20T19:25:21.776Z,4.32
2024-02-20T19:28:26.933Z,4.88
2024-02-20T19:31:37.246Z,4.70
2024-02-20T19:34:47.211Z,4.97
2024-02-20T19:37:55.474Z,5.90
2024-02-20T19:41:09.306Z,5.95
2024-02-20T19:44:13.450Z,5.32
2024-02-20T19:50:23.796Z,4.60
2024-02-20T19:53:28.400Z,4.53
2024-02-20T19:56:30.775Z,6.53
2024-02-20T19:59:38.567Z,5.20
2024-02-20T20:02:50.211Z,4.35
2024-02-20T20:06:05.122Z,5.03
2024-02-20T20:09:16.369Z,5.18
2024-02-20T20:12:22.564Z,6.88
2024-02-20T20:15:30.091Z,7.50
2024-02-20T20:18:35.364Z,5.70
2024-02-20T20:21:38.940Z,5.30
2024-02-20T20:24:41.491Z,5.75
2024-02-20T20:27:58.398Z,5.22
2024-02-20T20:31:00.821Z,4.72
2024-02-20T20:34:05.470Z,5.28
2024-02-20T20:37:13.909Z,4.93
2024-02-20T20:40:22.793Z,5.60
2024-02-20T20:43:28.244Z,5.72
2024-02-20T20:53:19.650Z,4.95
2024-02-20T20:56:34.393Z,6.25
2024-02-20T20:59:40.557Z,4.47
2024-02-20T21:02:47.159Z,6.00
2024-02-20T21:05:55.022Z,5.10
2024-02-20T21:09:11.536Z,5.40
2024-02-20T21:12:15.991Z,5.15
2024-02-20T21:15:18.395Z,7.15
2024-02-20T21:18:20.832Z,6.38
2024-02-20T21:21:28.814Z,5.47
2024-02-20T21:24:33.375Z,6.47
2024-02-20T21:27:37.381Z,6.03
2024-02-20T21:30:45.314Z,6.57
2024-02-20T21:33:57.160Z,6.70
2024-02-20T21:37:02.026Z,5.85
2024-02-20T21:40:07.727Z,5.28
2024-02-20T21:43:11.210Z,5.32
2024-02-20T21:46:19.272Z,5.88
2024-02-20T21:49:25.401Z,7.20
2024-02-20T21:52:27.819Z,6.53
2024-02-20T21:55:34.444Z,5.40
2024-02-20T21:58:37.939Z,5.75
2024-02-20T22:01:42.114Z,6.05
2024-02-20T22:11:16.502Z,5.95
2024-02-20T22:14:22.731Z,5.78
2024-02-20T22:17:29.721Z,7.47
2024-02-20T22:20:41.006Z,6.10
2024-02-20T22:23:47.598Z,5.90
2024-02-20T22:26:56.963Z,5.55
2024-02-20T22:30:02.009Z,6.05
2024-02-20T22:33:07.383Z,6.00
2024-02-20T22:36:16.917Z,7.72
2024-02-20T22:39:30.168Z,6.63
2024-02-20T22:42:34.060Z,7.15
2024-02-20T22:45:39.735Z,7.03
2024-02-20T22:48:48.276Z,6.95
2024-02-20T22:51:55.100Z,6.70
2024-02-20T22:54:58.774Z,6.75
2024-02-20T22:58:04.472Z,4.97
2024-02-20T23:01:11.155Z,6.90
2024-02-20T23:04:16.817Z,7.80
2024-02-20T23:07:25.825Z,7.38
2024-02-20T23:10:30.846Z,7.20
2024-02-20T23:13:37.566Z,7.15
2024-02-20T23:16:41.565Z,6.82
2024-02-20T23:22:50.737Z,5.55
2024-02-20T23:29:02.205Z,6.75
2024-02-20T23:32:07.303Z,6.35
2024-02-20T23:35:10.731Z,6.40
2024-02-20T23:38:15.951Z,6.07
2024-02-20T23:41:23.874Z,6.68
2024-02-20T23:47:58.688Z,5.80
2024-02-20T23:51:06.734Z,5.35
2024-02-20T23:54:11.319Z,5.63
2024-02-20T23:57:14.877Z,4.88
